Terminal Aerodrome Forecast
Issued by NWS

Home | Current Version | Previous Version | Graphics & Text | Print | Product List | Glossary On
Versions: 1 2 3 4 5 6 7 8 9 10 11 12 13 14 15 16 17 18
000
FTUS43 KMPX 210520
TAFAXN
TAF
KAXN 210520Z 2106/2206 34010KT P6SM BKN120
     FM210900 07004KT P6SM SCT150
     FM211300 11006KT P6SM BKN200
     FM212100 35004KT P6SM SCT100 BKN150=

USA.gov is the U.S. government's official web portal to all federal, state and local government web resources and services.